Nautilus — OUYX2 — position and weather

sailwx.info

Track history (hours):
 
Tides and Currents Weather Stations Pressure Air Temp Water Temp Dewpoint Dewpoint Depression Visibility Wind Speed Wind Dir Waves Ship Positions

Nautilus

Last reported at 2017-Feb-21 03:33 UTC. Time now 2017-Feb-22 08:20 UTC.
Position N 59°39' E 023°55'.

Length 120 m; draft 5.5 m.

Type: Ship. MMSI: 219425000.

Date/timePositionNaut miles runAvg speedWind from/ knotsBaromVisibWave heightAir tempDewpointWater temp
2017-Feb-21 03:33N 59°39' E 023°55'1212.0
2017-Feb-21 02:32N 59°35' E 023°32'18310.0
2017-Feb-20 08:13N 59°16' E 017°34'710.9
2017-Feb-20 07:31N 59°23' E 017°27'2 0.1
2017-Feb-19 14:26N 59°21' E 017°29'138 6.6
2017-Feb-18 17:22N 59°20' E 022°00'910.9
2017-Feb-18 16:33N 59°25' E 022°14'105 2.4
2017-Feb-16 21:15N 60°01' E 025°29'0 0.0
2017-Feb-16 17:12N 60°01' E 025°29'3 4.0
2017-Feb-16 16:33N 59°58' E 025°29'1211.7
2017-Feb-16 15:32N 59°50' E 025°13'1312.4
2017-Feb-16 14:27N 59°46' E 024°47'2512.5
2017-Feb-16 12:26N 59°40' E 023°58'1112.4
2017-Feb-16 11:33N 59°36' E 023°38'1512.5
2017-Feb-16 10:24N 59°32' E 023°10'1112.6
2017-Feb-16 09:33N 59°29' E 022°50'1313.2
2017-Feb-16 08:33N 59°23' E 022°27'1412.8
2017-Feb-16 07:30N 59°20' E 022°01'5413.2
2017-Feb-16 03:23N 59°05' E 020°20'1212.7
2017-Feb-16 02:27N 58°60' E 019°59'1213.4
2017-Feb-16 01:34N 58°56' E 019°37'1313.0
2017-Feb-16 00:33N 58°54' E 019°12'4611.2
2017-Feb-15 20:27N 58°53' E 017°43'24 7.7
2017-Feb-15 17:22N 59°16' E 017°35'8 8.9
2017-Feb-15 16:31N 59°23' E 017°27'23 1.3
2017-Feb-14 23:03N 59°31' E 016°44'15 9.1
2017-Feb-14 21:26N 59°30' E 017°13'910.7
2017-Feb-14 20:33N 59°23' E 017°27'187 6.9
2017-Feb-13 17:33N 59°40' E 023°34'14 0.5
2017-Feb-12 12:10N 59°40' E 024°01'813.2
2017-Feb-12 11:33N 59°38' E 023°45'12313.1
2017-Feb-12 02:09N 59°00' E 019°55'2213.1
2017-Feb-12 00:30N 58°54' E 019°14'53 7.7
2017-Feb-11 17:34N 59°13' E 017°37'9 9.4
2017-Feb-11 16:34N 59°21' E 017°29'1010.5
2017-Feb-11 15:34N 59°28' E 017°14'8 8.1
2017-Feb-11 14:33N 59°31' E 016°59'9 8.2
2017-Feb-11 13:29N 59°31' E 016°42'6 1.0
2017-Feb-11 07:08N 59°36' E 016°33'9 9.6
2017-Feb-11 06:11N 59°30' E 016°47'6 8.9
2017-Feb-11 05:33N 59°31' E 016°58'9 9.0
2017-Feb-11 04:33N 59°28' E 017°15'1211.8
2017-Feb-11 03:33N 59°20' E 017°31'  
Track history (hours):
 
Tides and Currents Weather Stations Pressure Air Temp Water Temp Dewpoint Dewpoint Depression Visibility Wind Speed Wind Dir Waves Ship Positions

Nautilus

Last reported at 2017-Feb-21 03:33 UTC. Time now 2017-Feb-22 08:20 UTC.
Position N 59°39' E 023°55'.

Length 120 m; draft 5.5 m.

Type: Ship. MMSI: 219425000.

Date/timePositionNaut miles runAvg speedWind from/ knotsBaromVisibWave heightAir tempDewpointWater temp
2017-Feb-21 03:33N 59°39' E 023°55'1212.0
2017-Feb-21 02:32N 59°35' E 023°32'18310.0
2017-Feb-20 08:13N 59°16' E 017°34'710.9
2017-Feb-20 07:31N 59°23' E 017°27'2 0.1
2017-Feb-19 14:26N 59°21' E 017°29'138 6.6
2017-Feb-18 17:22N 59°20' E 022°00'910.9
2017-Feb-18 16:33N 59°25' E 022°14'105 2.4
2017-Feb-16 21:15N 60°01' E 025°29'0 0.0
2017-Feb-16 17:12N 60°01' E 025°29'3 4.0
2017-Feb-16 16:33N 59°58' E 025°29'1211.7
2017-Feb-16 15:32N 59°50' E 025°13'1312.4
2017-Feb-16 14:27N 59°46' E 024°47'2512.5
2017-Feb-16 12:26N 59°40' E 023°58'1112.4
2017-Feb-16 11:33N 59°36' E 023°38'1512.5
2017-Feb-16 10:24N 59°32' E 023°10'1112.6
2017-Feb-16 09:33N 59°29' E 022°50'1313.2
2017-Feb-16 08:33N 59°23' E 022°27'1412.8
2017-Feb-16 07:30N 59°20' E 022°01'5413.2
2017-Feb-16 03:23N 59°05' E 020°20'1212.7
2017-Feb-16 02:27N 58°60' E 019°59'1213.4
2017-Feb-16 01:34N 58°56' E 019°37'1313.0
2017-Feb-16 00:33N 58°54' E 019°12'4611.2
2017-Feb-15 20:27N 58°53' E 017°43'24 7.7
2017-Feb-15 17:22N 59°16' E 017°35'8 8.9
2017-Feb-15 16:31N 59°23' E 017°27'23 1.3
2017-Feb-14 23:03N 59°31' E 016°44'15 9.1
2017-Feb-14 21:26N 59°30' E 017°13'910.7
2017-Feb-14 20:33N 59°23' E 017°27'187 6.9
2017-Feb-13 17:33N 59°40' E 023°34'14 0.5
2017-Feb-12 12:10N 59°40' E 024°01'813.2
2017-Feb-12 11:33N 59°38' E 023°45'12313.1
2017-Feb-12 02:09N 59°00' E 019°55'2213.1
2017-Feb-12 00:30N 58°54' E 019°14'53 7.7
2017-Feb-11 17:34N 59°13' E 017°37'9 9.4
2017-Feb-11 16:34N 59°21' E 017°29'1010.5
2017-Feb-11 15:34N 59°28' E 017°14'8 8.1
2017-Feb-11 14:33N 59°31' E 016°59'9 8.2
2017-Feb-11 13:29N 59°31' E 016°42'6 1.0
2017-Feb-11 07:08N 59°36' E 016°33'9 9.6
2017-Feb-11 06:11N 59°30' E 016°47'6 8.9
2017-Feb-11 05:33N 59°31' E 016°58'9 9.0
2017-Feb-11 04:33N 59°28' E 017°15'1211.8
2017-Feb-11 03:33N 59°20' E 017°31'  

Dump ship's entire track history